createdAt,value
2023-01-21T00:01:12.976Z,23.90
2023-01-21T00:03:41.233Z,25.20
2023-01-21T00:06:09.993Z,26.30
2023-01-21T00:08:38.191Z,25.10
2023-01-21T00:11:07.040Z,24.20
2023-01-21T00:13:35.584Z,25.17
2023-01-21T00:16:05.597Z,24.70
2023-01-21T00:18:33.795Z,24.40
2023-01-21T00:21:02.303Z,25.17
2023-01-21T00:23:30.492Z,26.43
2023-01-21T00:25:59.389Z,24.53
2023-01-21T00:28:29.341Z,26.50
2023-01-21T00:30:59.241Z,25.20
2023-01-21T00:33:29.399Z,24.43
2023-01-21T00:36:01.707Z,24.13
2023-01-21T00:38:30.392Z,23.97
2023-01-21T00:41:02.256Z,24.57
2023-01-21T00:43:30.397Z,25.33
2023-01-21T00:45:58.615Z,24.97
2023-01-21T00:48:28.295Z,24.20
2023-01-21T00:51:00.558Z,23.87
2023-01-21T00:53:29.294Z,24.27
2023-01-21T00:56:00.815Z,24.00
2023-01-21T00:58:29.303Z,25.30
2023-01-21T01:01:02.520Z,25.07
2023-01-21T01:03:30.747Z,26.17
2023-01-21T01:06:04.506Z,25.77
2023-01-21T01:08:32.773Z,25.50
2023-01-21T01:11:01.072Z,25.63
2023-01-21T01:13:29.247Z,26.40
2023-01-21T01:15:58.591Z,25.60
2023-01-21T01:18:27.468Z,26.03
2023-01-21T01:20:55.747Z,25.53
2023-01-21T01:23:25.250Z,24.13
2023-01-21T01:25:56.928Z,26.00
2023-01-21T01:28:25.127Z,26.43
2023-01-21T01:30:53.524Z,25.20
2023-01-21T01:33:21.879Z,27.27
2023-01-21T01:35:50.353Z,26.63
2023-01-21T01:38:20.125Z,26.33
2023-01-21T01:40:50.342Z,24.90
2023-01-21T01:43:19.849Z,26.73
2023-01-21T01:45:49.237Z,25.90
2023-01-21T01:48:18.697Z,25.97
2023-01-21T01:50:47.710Z,26.23
2023-01-21T01:53:17.312Z,26.53
2023-01-21T01:55:45.638Z,27.57
2023-01-21T01:58:16.176Z,27.43
2023-01-21T02:00:44.380Z,26.13
2023-01-21T02:03:30.969Z,28.13
2023-01-21T02:05:59.144Z,26.23
2023-01-21T02:08:27.902Z,27.77
2023-01-21T02:10:56.675Z,26.90
2023-01-21T02:13:27.230Z,27.07
2023-01-21T02:16:01.857Z,26.90
2023-01-21T02:18:36.547Z,26.27
2023-01-21T02:21:13.083Z,27.43
2023-01-21T02:23:50.098Z,27.50
2023-01-21T02:26:45.373Z,26.93
2023-01-21T02:29:28.432Z,26.17
2023-01-21T02:32:07.203Z,26.77
2023-01-21T02:34:40.375Z,26.63
2023-01-21T02:37:11.636Z,27.47
2023-01-21T02:40:02.645Z,27.37
2023-01-21T02:42:34.327Z,26.47
2023-01-21T02:45:06.452Z,26.80
2023-01-21T02:47:39.227Z,27.40
2023-01-21T02:50:12.161Z,26.67
2023-01-21T02:52:40.306Z,26.23
2023-01-21T02:55:14.149Z,25.87
2023-01-21T02:57:44.184Z,27.00
2023-01-21T03:00:15.420Z,25.63
2023-01-21T03:03:02.667Z,25.93
2023-01-21T03:05:36.013Z,26.07
2023-01-21T03:08:08.372Z,26.97
2023-01-21T03:10:40.304Z,25.67
2023-01-21T03:13:13.076Z,25.47
2023-01-21T03:16:03.585Z,25.67
2023-01-21T03:18:35.925Z,25.43
2023-01-21T03:21:07.921Z,26.93
2023-01-21T03:23:39.213Z,26.80
2023-01-21T03:26:08.790Z,25.97
2023-01-21T03:28:39.816Z,24.47
2023-01-21T03:31:10.488Z,25.60
2023-01-21T03:33:40.693Z,24.43
2023-01-21T03:36:12.321Z,26.33
2023-01-21T03:38:43.714Z,25.27
2023-01-21T03:41:13.783Z,26.10
2023-01-21T03:43:42.008Z,25.57
2023-01-21T03:46:12.833Z,25.33
2023-01-21T03:48:42.609Z,24.93
2023-01-21T03:51:15.229Z,25.17
2023-01-21T03:53:44.038Z,25.53
2023-01-21T03:56:12.337Z,25.17
2023-01-21T03:58:40.544Z,25.03
2023-01-21T04:01:08.703Z,24.27
2023-01-21T04:03:36.918Z,25.23
2023-01-21T04:06:05.156Z,23.73
2023-01-21T04:08:34.714Z,24.50
2023-01-21T04:11:02.918Z,24.97
2023-01-21T04:13:31.067Z,24.83
2023-01-21T04:15:59.283Z,25.27
2023-01-21T04:18:27.409Z,25.27
2023-01-21T04:20:55.635Z,24.00
2023-01-21T04:23:23.977Z,25.60
2023-01-21T04:25:53.647Z,25.63
2023-01-21T04:28:22.044Z,24.37
2023-01-21T04:30:50.249Z,25.27
2023-01-21T04:33:18.653Z,25.77
2023-01-21T04:35:46.852Z,25.73
2023-01-21T04:38:15.783Z,26.00
2023-01-21T04:40:44.215Z,25.23
2023-01-21T04:43:13.736Z,26.30
2023-01-21T04:45:41.912Z,24.20
2023-01-21T04:48:10.143Z,24.63
2023-01-21T04:50:39.139Z,25.50
2023-01-21T04:53:07.304Z,25.33
2023-01-21T04:55:35.490Z,25.30
2023-01-21T04:58:03.747Z,24.67
2023-01-21T05:00:33.446Z,25.00
2023-01-21T05:03:01.661Z,25.13
2023-01-21T05:05:29.802Z,25.13
2023-01-21T05:07:57.973Z,24.80
2023-01-21T05:10:26.203Z,25.93
2023-01-21T05:12:54.427Z,25.77
2023-01-21T05:15:22.699Z,24.60
2023-01-21T05:17:52.191Z,24.10
2023-01-21T05:20:20.472Z,24.13
2023-01-21T05:22:49.056Z,23.10
2023-01-21T05:25:17.749Z,24.93
2023-01-21T05:27:45.884Z,24.93
2023-01-21T05:30:14.288Z,24.03
2023-01-21T05:32:42.530Z,24.83
2023-01-21T05:35:13.841Z,25.80
2023-01-21T05:37:42.041Z,24.00
2023-01-21T05:40:11.063Z,24.30
2023-01-21T05:42:39.250Z,25.90
2023-01-21T05:45:07.959Z,26.77
2023-01-21T05:47:36.289Z,24.37
2023-01-21T05:50:04.515Z,25.40
2023-01-21T05:52:34.077Z,24.80
2023-01-21T05:55:03.085Z,23.40
2023-01-21T05:57:31.690Z,24.33
2023-01-21T06:00:00.045Z,24.17
2023-01-21T06:02:28.306Z,23.33
2023-01-21T06:04:56.553Z,24.23
2023-01-21T06:07:24.815Z,23.27
2023-01-21T06:09:54.357Z,25.03
2023-01-21T06:12:24.618Z,24.77
2023-01-21T06:14:53.010Z,24.30
2023-01-21T06:17:21.238Z,24.60
2023-01-21T06:19:49.544Z,23.83
2023-01-21T06:22:18.111Z,24.17
2023-01-21T06:24:46.454Z,23.73
2023-01-21T06:27:16.013Z,23.30
2023-01-21T06:29:44.206Z,24.00
2023-01-21T06:32:12.429Z,23.73
2023-01-21T06:34:40.645Z,23.80
2023-01-21T06:37:08.846Z,22.90
2023-01-21T06:39:37.521Z,24.23
2023-01-21T06:42:05.868Z,23.47
2023-01-21T06:44:35.428Z,24.37
2023-01-21T06:47:03.608Z,23.50
2023-01-21T06:49:31.772Z,23.60
2023-01-21T06:51:59.978Z,24.20
2023-01-21T06:54:30.399Z,23.67
2023-01-21T06:56:58.814Z,24.03
2023-01-21T06:59:27.010Z,23.60
2023-01-21T07:01:59.013Z,24.57
2023-01-21T07:04:27.397Z,23.73
2023-01-21T07:06:55.623Z,24.47
2023-01-21T07:09:23.847Z,23.77
2023-01-21T07:11:52.224Z,24.53
2023-01-21T07:14:20.519Z,24.03
2023-01-21T07:16:48.836Z,24.17
2023-01-21T07:19:18.751Z,23.90
2023-01-21T07:21:47.035Z,23.80
2023-01-21T07:24:16.370Z,25.73
2023-01-21T07:26:44.576Z,24.07
2023-01-21T07:29:12.718Z,23.33
2023-01-21T07:31:41.084Z,25.37
2023-01-21T07:34:09.320Z,25.13
2023-01-21T07:36:38.889Z,28.83
2023-01-21T07:39:07.019Z,25.67
2023-01-21T07:41:35.195Z,25.27
2023-01-21T07:44:03.392Z,25.80
2023-01-21T07:46:33.177Z,25.27
2023-01-21T07:49:01.376Z,25.00
2023-01-21T07:51:29.591Z,24.17
2023-01-21T07:53:59.335Z,24.10
2023-01-21T07:56:27.527Z,24.83
2023-01-21T07:58:55.964Z,25.63
2023-01-21T08:01:26.956Z,24.53
2023-01-21T08:03:55.159Z,24.87
2023-01-21T08:06:23.801Z,25.73
2023-01-21T08:08:51.996Z,25.40
2023-01-21T08:11:21.597Z,25.47
2023-01-21T08:13:50.724Z,25.33
2023-01-21T08:16:18.998Z,26.00
2023-01-21T08:18:47.152Z,27.50
2023-01-21T08:21:15.395Z,26.27
2023-01-21T08:23:43.544Z,26.43
2023-01-21T08:26:11.817Z,25.57
2023-01-21T08:28:41.361Z,26.73
2023-01-21T08:31:11.032Z,27.13
2023-01-21T08:33:39.329Z,27.13
2023-01-21T08:36:09.424Z,26.70
2023-01-21T08:38:37.686Z,27.63
2023-01-21T08:41:06.037Z,27.70
2023-01-21T08:43:34.231Z,28.03
2023-01-21T08:46:03.825Z,27.50
2023-01-21T08:48:32.129Z,28.57
2023-01-21T08:51:00.857Z,29.53
2023-01-21T08:53:29.526Z,28.67
2023-01-21T08:56:00.290Z,29.33
2023-01-21T08:58:28.753Z,28.23
2023-01-21T09:00:57.017Z,28.60
2023-01-21T09:03:26.802Z,27.03
2023-01-21T09:05:55.755Z,28.40
2023-01-21T09:08:23.960Z,29.17
2023-01-21T09:11:05.339Z,27.87
2023-01-21T09:13:34.444Z,28.17
2023-01-21T09:16:03.070Z,27.93
2023-01-21T09:18:32.571Z,26.67
2023-01-21T09:21:04.138Z,28.00
2023-01-21T09:23:34.275Z,27.83
2023-01-21T09:26:04.218Z,28.80
2023-01-21T09:28:33.329Z,27.80
2023-01-21T09:31:02.306Z,28.03
2023-01-21T09:33:31.182Z,28.40
2023-01-21T09:36:01.272Z,27.17
2023-01-21T09:38:30.150Z,29.57
2023-01-21T09:41:00.901Z,29.93
2023-01-21T09:43:30.880Z,29.47
2023-01-21T09:46:03.761Z,28.37
2023-01-21T09:48:34.776Z,28.10
2023-01-21T09:51:06.630Z,27.07
2023-01-21T09:53:37.739Z,31.53
2023-01-21T09:56:09.276Z,33.23
2023-01-21T09:58:41.006Z,31.47
2023-01-21T10:01:12.574Z,27.90
2023-01-21T10:03:43.088Z,27.67
2023-01-21T10:06:21.817Z,26.60
2023-01-21T10:08:54.746Z,28.43
2023-01-21T10:11:28.519Z,27.23
2023-01-21T10:14:03.609Z,27.53
2023-01-21T10:16:33.876Z,27.43
2023-01-21T10:19:03.022Z,26.33
2023-01-21T10:21:35.726Z,26.90
2023-01-21T10:24:06.177Z,27.00
2023-01-21T10:26:35.810Z,29.17
2023-01-21T10:29:04.119Z,27.00
2023-01-21T10:31:37.148Z,27.93
2023-01-21T10:34:06.882Z,27.03
2023-01-21T10:36:46.534Z,28.40
2023-01-21T10:39:19.160Z,28.07
2023-01-21T10:41:54.496Z,28.83
2023-01-21T10:44:26.428Z,27.93
2023-01-21T10:46:58.064Z,28.37
2023-01-21T10:49:30.229Z,29.73
2023-01-21T10:52:02.517Z,29.53
2023-01-21T10:54:38.121Z,27.60
2023-01-21T10:57:08.653Z,26.97
2023-01-21T10:59:38.143Z,28.73
2023-01-21T11:02:12.323Z,28.87
2023-01-21T11:04:41.789Z,30.10
2023-01-21T11:07:13.638Z,28.13
2023-01-21T11:09:44.523Z,32.40
2023-01-21T11:12:13.941Z,30.60
2023-01-21T11:14:42.572Z,28.33
2023-01-21T11:17:11.816Z,28.50
2023-01-21T11:19:40.169Z,28.33
2023-01-21T11:22:21.939Z,27.87
2023-01-21T11:24:52.776Z,26.07
2023-01-21T11:27:21.922Z,24.73
2023-01-21T11:29:50.858Z,25.33
2023-01-21T11:32:21.360Z,23.20
2023-01-21T11:34:50.549Z,22.70
2023-01-21T11:37:22.719Z,25.03
2023-01-21T11:39:54.077Z,23.47
2023-01-21T11:42:22.654Z,24.03
2023-01-21T11:44:55.363Z,22.80
2023-01-21T11:47:30.847Z,22.50
2023-01-21T11:50:04.274Z,22.90
2023-01-21T11:52:32.597Z,22.17
2023-01-21T11:55:04.663Z,22.77
2023-01-21T11:57:33.516Z,20.80
2023-01-21T12:00:07.541Z,19.07
2023-01-21T12:02:38.262Z,19.73
2023-01-21T12:05:09.892Z,20.73
2023-01-21T12:07:40.545Z,19.17
2023-01-21T12:10:24.336Z,19.60
2023-01-21T12:12:57.314Z,19.17
2023-01-21T12:15:33.810Z,18.70
2023-01-21T12:18:08.832Z,18.97
2023-01-21T12:20:41.179Z,19.90
2023-01-21T12:23:19.044Z,18.93
2023-01-21T12:25:52.980Z,20.50
2023-01-21T12:28:39.536Z,19.20
2023-01-21T12:31:21.606Z,18.33
2023-01-21T12:33:52.231Z,18.77
2023-01-21T12:36:22.360Z,18.90
2023-01-21T12:38:54.128Z,17.97
2023-01-21T12:41:25.319Z,18.30
2023-01-21T12:43:54.359Z,17.13
2023-01-21T12:46:25.037Z,17.50
2023-01-21T12:48:56.744Z,18.73
2023-01-21T12:51:27.914Z,18.87
2023-01-21T12:53:58.418Z,18.07
2023-01-21T12:56:34.403Z,19.27
2023-01-21T12:59:05.667Z,19.03
2023-01-21T13:01:37.539Z,17.43
2023-01-21T13:04:08.537Z,18.40
2023-01-21T13:06:53.140Z,18.50
2023-01-21T13:09:26.761Z,18.87
2023-01-21T13:11:58.319Z,17.60
2023-01-21T13:14:28.871Z,17.10
2023-01-21T13:16:59.809Z,18.43
2023-01-21T13:19:28.100Z,19.40
2023-01-21T13:21:58.399Z,16.87
2023-01-21T13:24:28.734Z,17.07
2023-01-21T13:27:02.533Z,16.20
2023-01-21T13:29:34.987Z,18.43
2023-01-21T13:32:15.971Z,17.57
2023-01-21T13:34:49.571Z,17.30
2023-01-21T13:37:22.972Z,17.80
2023-01-21T13:39:54.521Z,17.17
2023-01-21T13:42:31.281Z,18.20
2023-01-21T13:45:12.904Z,16.70
2023-01-21T13:47:52.517Z,16.20
2023-01-21T13:50:24.891Z,16.40
2023-01-21T13:53:00.818Z,16.47
2023-01-21T13:55:36.680Z,17.63
2023-01-21T13:58:07.292Z,16.10
2023-01-21T14:00:37.003Z,16.63
2023-01-21T14:03:10.676Z,15.87
2023-01-21T14:05:40.814Z,15.13
2023-01-21T14:08:10.323Z,18.17
2023-01-21T14:10:40.532Z,17.17
2023-01-21T14:13:29.509Z,17.80
2023-01-21T14:16:10.830Z,18.77
2023-01-21T14:18:47.711Z,18.80
2023-01-21T14:21:26.450Z,18.30
2023-01-21T14:24:05.920Z,16.50
2023-01-21T14:26:43.764Z,16.50
2023-01-21T14:29:18.499Z,16.43
2023-01-21T14:31:51.575Z,16.90
2023-01-21T14:34:21.516Z,18.80
2023-01-21T14:36:54.501Z,19.13
2023-01-21T14:39:43.159Z,19.30
2023-01-21T14:42:12.662Z,19.27
2023-01-21T14:44:42.735Z,18.90
2023-01-21T14:47:22.788Z,20.17
2023-01-21T14:49:52.375Z,18.03
2023-01-21T14:52:21.512Z,19.50
2023-01-21T14:54:50.207Z,18.80
2023-01-21T14:57:29.817Z,19.77
2023-01-21T15:00:05.976Z,18.97
2023-01-21T15:02:37.196Z,20.53
2023-01-21T15:05:16.557Z,19.43
2023-01-21T15:07:46.368Z,18.80
2023-01-21T15:10:17.148Z,18.20
2023-01-21T15:12:48.490Z,18.90
2023-01-21T15:15:30.927Z,18.70
2023-01-21T15:18:05.117Z,18.23
2023-01-21T15:20:40.772Z,18.10
2023-01-21T15:23:19.093Z,18.60
2023-01-21T15:26:02.159Z,19.20
2023-01-21T15:28:40.353Z,16.83
2023-01-21T15:31:10.725Z,18.13
2023-01-21T15:33:42.882Z,19.23
2023-01-21T15:36:17.933Z,18.63
2023-01-21T15:38:46.163Z,17.80
2023-01-21T15:41:21.922Z,18.00
2023-01-21T15:43:54.993Z,18.17
2023-01-21T15:46:26.969Z,19.70
2023-01-21T15:49:05.532Z,17.03
2023-01-21T15:51:40.963Z,19.67
2023-01-21T15:54:29.275Z,18.43
2023-01-21T15:56:59.783Z,20.33
2023-01-21T15:59:34.577Z,18.77
2023-01-21T16:02:14.979Z,19.03
2023-01-21T16:04:47.992Z,18.50
2023-01-21T16:07:21.539Z,19.47
2023-01-21T16:09:57.562Z,19.20
2023-01-21T16:12:29.800Z,19.60
2023-01-21T16:15:01.203Z,18.97
2023-01-21T16:17:37.267Z,18.67
2023-01-21T16:20:09.012Z,18.97
2023-01-21T16:22:39.257Z,20.03
2023-01-21T16:25:09.558Z,20.70
2023-01-21T16:27:37.730Z,20.20
2023-01-21T16:30:07.488Z,20.87
2023-01-21T16:32:37.363Z,19.37
2023-01-21T16:35:07.486Z,18.97
2023-01-21T16:37:36.868Z,17.93
2023-01-21T16:40:21.542Z,18.47
2023-01-21T16:42:49.684Z,19.17
2023-01-21T16:45:19.512Z,19.27
2023-01-21T16:47:48.358Z,19.43
2023-01-21T16:50:21.379Z,20.23
2023-01-21T16:52:49.968Z,20.77
2023-01-21T16:55:21.677Z,20.77
2023-01-21T16:57:50.655Z,17.10
2023-01-21T17:00:25.681Z,21.87
2023-01-21T17:02:54.933Z,18.20
2023-01-21T17:05:24.851Z,19.20
2023-01-21T17:07:55.769Z,19.67
2023-01-21T17:10:26.052Z,20.30
2023-01-21T17:12:55.487Z,22.23
2023-01-21T17:15:27.361Z,22.17
2023-01-21T17:17:56.076Z,22.07
2023-01-21T17:20:39.584Z,19.17
2023-01-21T17:23:10.112Z,19.57
2023-01-21T17:25:38.765Z,19.30
2023-01-21T17:28:19.410Z,19.50
2023-01-21T17:30:48.026Z,20.13
2023-01-21T17:33:30.419Z,20.43
2023-01-21T17:36:10.610Z,19.27
2023-01-21T17:38:43.350Z,18.43
2023-01-21T17:41:14.232Z,19.23
2023-01-21T17:43:49.490Z,18.80
2023-01-21T17:46:22.402Z,19.43
2023-01-21T17:48:51.985Z,18.40
2023-01-21T17:51:22.867Z,18.93
2023-01-21T17:53:52.984Z,19.00
2023-01-21T17:56:35.589Z,18.70
2023-01-21T17:59:03.794Z,21.17
2023-01-21T18:01:32.434Z,19.60
2023-01-21T18:04:00.703Z,21.50
2023-01-21T18:06:30.735Z,22.03
2023-01-21T18:08:59.357Z,21.23
2023-01-21T18:11:27.738Z,21.53
2023-01-21T18:13:56.000Z,22.37
2023-01-21T18:16:24.650Z,19.60
2023-01-21T18:18:54.068Z,19.47
2023-01-21T18:21:22.889Z,20.47
2023-01-21T18:23:52.592Z,19.07
2023-01-21T18:26:27.046Z,20.60
2023-01-21T18:28:55.302Z,20.27
2023-01-21T18:31:23.863Z,19.10
2023-01-21T18:33:52.189Z,21.13
2023-01-21T18:36:20.472Z,21.63
2023-01-21T18:38:48.890Z,22.00
2023-01-21T18:41:18.596Z,23.33
2023-01-21T18:43:47.563Z,22.07
2023-01-21T18:46:16.261Z,22.90
2023-01-21T18:48:44.704Z,21.83
2023-01-21T18:51:14.157Z,22.07
2023-01-21T18:53:42.453Z,23.03
2023-01-21T18:56:14.270Z,24.77
2023-01-21T18:58:43.901Z,28.73
2023-01-21T19:01:22.430Z,25.90
2023-01-21T19:03:51.081Z,24.90
2023-01-21T19:06:19.281Z,25.83
2023-01-21T19:08:48.775Z,24.43
2023-01-21T19:11:18.023Z,22.20
2023-01-21T19:13:47.657Z,24.63
2023-01-21T19:16:17.322Z,21.83
2023-01-21T19:18:45.612Z,24.07
2023-01-21T19:21:13.877Z,23.80
2023-01-21T19:23:42.077Z,26.37
2023-01-21T19:26:14.241Z,25.67
2023-01-21T19:28:42.718Z,24.43
2023-01-21T19:31:12.334Z,24.73
2023-01-21T19:33:42.872Z,25.00
2023-01-21T19:36:15.006Z,26.57
2023-01-21T19:38:44.221Z,51.17
2023-01-21T19:41:12.658Z,33.63
2023-01-21T19:43:41.238Z,42.33
2023-01-21T19:46:13.254Z,37.03
2023-01-21T19:48:42.273Z,27.33
2023-01-21T19:51:10.542Z,26.50
2023-01-21T19:53:38.799Z,23.60
2023-01-21T19:56:07.477Z,23.40
2023-01-21T19:58:35.700Z,24.53
2023-01-21T20:01:03.974Z,24.60
2023-01-21T20:03:33.488Z,25.97
2023-01-21T20:06:03.350Z,25.10
2023-01-21T20:08:31.807Z,25.43
2023-01-21T20:11:00.151Z,25.80
2023-01-21T20:13:32.085Z,25.10
2023-01-21T20:16:02.680Z,23.70
2023-01-21T20:18:32.531Z,23.87
2023-01-21T20:21:02.124Z,22.13
2023-01-21T20:23:32.555Z,24.27
2023-01-21T20:26:01.948Z,23.67
2023-01-21T20:28:36.707Z,25.50
2023-01-21T20:31:07.177Z,24.97
2023-01-21T20:33:36.150Z,23.73
2023-01-21T20:36:06.536Z,24.13
2023-01-21T20:38:36.357Z,40.90
2023-01-21T20:41:05.339Z,26.10
2023-01-21T20:43:33.567Z,23.90
2023-01-21T20:46:03.515Z,24.17
2023-01-21T20:48:33.811Z,24.43
2023-01-21T20:51:02.002Z,24.63
2023-01-21T20:53:31.728Z,23.20
2023-01-21T20:56:01.387Z,24.67
2023-01-21T20:58:29.674Z,24.07
2023-01-21T21:00:57.880Z,24.70
2023-01-21T21:03:26.023Z,25.23
2023-01-21T21:05:54.239Z,24.93
2023-01-21T21:08:23.082Z,24.33
2023-01-21T21:10:52.851Z,24.27
2023-01-21T21:13:21.082Z,24.20
2023-01-21T21:15:50.037Z,23.53
2023-01-21T21:18:18.228Z,22.80
2023-01-21T21:20:46.437Z,24.60
2023-01-21T21:23:15.750Z,25.27
2023-01-21T21:25:45.392Z,25.87
2023-01-21T21:28:16.233Z,24.73
2023-01-21T21:30:44.800Z,25.17
2023-01-21T21:33:16.617Z,23.53
2023-01-21T21:35:46.602Z,26.00
2023-01-21T21:38:16.183Z,24.93
2023-01-21T21:40:46.105Z,25.27
2023-01-21T21:43:38.840Z,24.67
2023-01-21T21:46:25.740Z,23.60
2023-01-21T21:48:54.210Z,23.03
2023-01-21T21:51:22.716Z,22.37
2023-01-21T21:53:51.057Z,22.70
2023-01-21T21:56:19.864Z,22.03
2023-01-21T21:58:49.725Z,22.63
2023-01-21T22:01:18.711Z,21.13
2023-01-21T22:03:47.036Z,21.53
2023-01-21T22:06:15.345Z,21.57
2023-01-21T22:08:44.180Z,21.13
2023-01-21T22:11:14.745Z,22.37
2023-01-21T22:13:43.568Z,21.07
2023-01-21T22:16:13.841Z,19.83
2023-01-21T22:18:42.221Z,20.20
2023-01-21T22:21:12.229Z,20.97
2023-01-21T22:23:40.571Z,21.30
2023-01-21T22:26:10.509Z,20.23
2023-01-21T22:28:39.801Z,21.73
2023-01-21T22:31:09.478Z,22.17
2023-01-21T22:33:39.531Z,21.73
2023-01-21T22:36:08.785Z,22.90
2023-01-21T22:38:40.445Z,23.43
2023-01-21T22:41:09.191Z,23.30
2023-01-21T22:43:37.364Z,21.97
2023-01-21T22:46:05.676Z,21.17
2023-01-21T22:48:33.917Z,20.03
2023-01-21T22:51:03.553Z,20.23
2023-01-21T22:53:31.817Z,20.53
2023-01-21T22:56:00.762Z,20.37
2023-01-21T22:58:29.736Z,20.47
2023-01-21T23:00:58.201Z,19.40
2023-01-21T23:03:26.737Z,21.57
2023-01-21T23:05:56.003Z,21.10
2023-01-21T23:08:25.531Z,20.90
2023-01-21T23:11:00.986Z,20.70
2023-01-21T23:13:29.215Z,19.60
2023-01-21T23:15:57.634Z,17.97
2023-01-21T23:18:26.676Z,18.87
2023-01-21T23:20:54.888Z,18.33
2023-01-21T23:23:23.221Z,18.77
2023-01-21T23:25:52.784Z,19.03
2023-01-21T23:28:21.002Z,18.63
2023-01-21T23:30:49.295Z,19.37
2023-01-21T23:33:17.552Z,17.60
2023-01-21T23:35:45.732Z,17.97
2023-01-21T23:38:13.971Z,17.90
2023-01-21T23:40:42.159Z,16.93
2023-01-21T23:43:11.634Z,17.47
2023-01-21T23:45:40.332Z,17.17
2023-01-21T23:48:08.546Z,16.03
2023-01-21T23:50:36.722Z,17.37
2023-01-21T23:53:04.941Z,16.83
2023-01-21T23:55:33.282Z,16.17
2023-01-21T23:58:01.459Z,16.10
